createdAt,value
2022-09-17T00:01:27.209Z,1.60
2022-09-17T00:03:56.619Z,2.00
2022-09-17T00:06:26.147Z,1.58
2022-09-17T00:08:55.245Z,1.90
2022-09-17T00:11:25.986Z,1.63
2022-09-17T00:13:54.754Z,2.33
2022-09-17T00:16:26.153Z,1.77
2022-09-17T00:18:53.988Z,2.17
2022-09-17T00:21:22.280Z,1.70
2022-09-17T00:23:50.182Z,2.65
2022-09-17T00:26:17.985Z,2.22
2022-09-17T00:28:50.620Z,1.98
2022-09-17T00:31:18.653Z,2.40
2022-09-17T00:33:46.547Z,2.13
2022-09-17T00:36:14.458Z,2.00
2022-09-17T00:38:42.349Z,2.28
2022-09-17T00:41:10.439Z,2.13
2022-09-17T00:43:42.885Z,2.20
2022-09-17T00:46:26.950Z,1.88
2022-09-17T00:48:55.818Z,1.95
2022-09-17T00:51:29.997Z,1.70
2022-09-17T00:53:57.909Z,2.85
2022-09-17T00:56:28.891Z,1.85
2022-09-17T00:58:57.188Z,2.17
2022-09-17T01:01:26.480Z,2.08
2022-09-17T01:03:54.319Z,2.03
2022-09-17T01:06:30.425Z,1.50
2022-09-17T01:09:10.981Z,1.83
2022-09-17T01:12:00.298Z,2.42
2022-09-17T01:14:43.641Z,2.15
2022-09-17T01:17:21.208Z,2.08
2022-09-17T01:20:22.535Z,1.90
2022-09-17T01:23:06.965Z,1.60
2022-09-17T01:25:45.480Z,1.70
2022-09-17T01:28:34.015Z,2.35
2022-09-17T01:31:35.014Z,3.75
2022-09-17T01:34:12.298Z,2.17
2022-09-17T01:36:51.045Z,2.40
2022-09-17T01:39:32.357Z,1.92
2022-09-17T01:42:11.436Z,2.30
2022-09-17T01:44:46.466Z,2.35
2022-09-17T01:47:21.316Z,2.00
2022-09-17T01:49:51.726Z,2.28
2022-09-17T01:52:20.698Z,2.72
2022-09-17T01:54:53.779Z,1.90
2022-09-17T01:57:27.941Z,2.30
2022-09-17T02:00:01.121Z,1.95
2022-09-17T02:02:35.482Z,2.20
2022-09-17T02:05:08.595Z,2.20
2022-09-17T02:07:42.176Z,3.38
2022-09-17T02:10:14.653Z,1.60
2022-09-17T02:12:47.626Z,1.60
2022-09-17T02:15:22.127Z,2.05
2022-09-17T02:17:55.772Z,1.80
2022-09-17T02:20:29.924Z,2.17
2022-09-17T02:23:02.998Z,2.20
2022-09-17T02:25:37.061Z,1.92
2022-09-17T02:28:12.807Z,2.08
2022-09-17T02:30:41.111Z,4.38
2022-09-17T02:33:14.891Z,2.08
2022-09-17T02:35:43.499Z,2.80
2022-09-17T02:38:11.468Z,2.22
2022-09-17T02:40:47.319Z,2.63
2022-09-17T02:43:24.583Z,1.70
2022-09-17T02:46:13.397Z,2.05
2022-09-17T02:49:11.690Z,1.95
2022-09-17T02:51:51.388Z,1.90
2022-09-17T02:54:27.740Z,2.58
2022-09-17T02:57:06.078Z,2.65
2022-09-17T02:59:41.888Z,2.13
2022-09-17T03:02:16.508Z,2.50
2022-09-17T03:04:48.627Z,2.78
2022-09-17T03:07:20.005Z,2.25
2022-09-17T03:09:47.867Z,2.65
2022-09-17T03:12:16.442Z,1.92
2022-09-17T03:14:44.205Z,1.77
2022-09-17T03:17:13.010Z,1.80
2022-09-17T03:19:40.787Z,3.10
2022-09-17T03:22:09.946Z,2.05
2022-09-17T03:24:37.726Z,1.98
2022-09-17T03:27:05.939Z,2.08
2022-09-17T03:29:34.497Z,2.45
2022-09-17T03:32:03.741Z,2.75
2022-09-17T03:34:31.610Z,1.70
2022-09-17T03:36:59.392Z,2.20
2022-09-17T03:39:29.452Z,2.60
2022-09-17T03:41:57.377Z,1.95
2022-09-17T03:44:25.227Z,2.15
2022-09-17T03:46:53.859Z,1.95
2022-09-17T03:49:21.659Z,2.10
2022-09-17T03:51:49.414Z,2.40
2022-09-17T03:54:17.603Z,1.65
2022-09-17T03:56:46.827Z,2.10
2022-09-17T03:59:15.215Z,2.80
2022-09-17T04:01:43.159Z,2.20
2022-09-17T04:04:11.032Z,2.50
2022-09-17T04:06:38.912Z,2.47
2022-09-17T04:09:06.806Z,2.00
2022-09-17T04:11:34.626Z,2.13
2022-09-17T04:14:04.366Z,3.15
2022-09-17T04:16:32.248Z,2.80
2022-09-17T04:19:00.273Z,2.92
2022-09-17T04:21:28.174Z,2.40
2022-09-17T04:23:55.971Z,4.00
2022-09-17T04:26:23.751Z,2.65
2022-09-17T04:28:51.548Z,2.50
2022-09-17T04:31:25.053Z,2.17
2022-09-17T04:33:52.931Z,4.50
2022-09-17T04:36:20.930Z,1.95
2022-09-17T04:38:49.268Z,2.67
2022-09-17T04:41:17.057Z,3.42
2022-09-17T04:43:44.874Z,2.78
2022-09-17T04:46:14.198Z,2.33
2022-09-17T04:48:43.623Z,3.30
2022-09-17T04:51:11.399Z,2.80
2022-09-17T04:53:39.279Z,3.55
2022-09-17T04:56:07.230Z,2.90
2022-09-17T04:58:35.331Z,3.10
2022-09-17T05:01:03.226Z,4.07
2022-09-17T05:03:31.081Z,5.78
2022-09-17T05:06:00.254Z,3.28
2022-09-17T05:08:28.051Z,2.92
2022-09-17T05:10:56.623Z,3.35
2022-09-17T05:13:24.407Z,4.22
2022-09-17T05:15:52.384Z,3.90
2022-09-17T05:18:20.204Z,3.40
2022-09-17T05:20:48.144Z,4.25
2022-09-17T05:23:17.778Z,3.55
2022-09-17T05:25:45.575Z,3.83
2022-09-17T05:28:13.381Z,3.92
2022-09-17T05:30:41.176Z,4.60
2022-09-17T05:33:09.167Z,4.55
2022-09-17T05:35:37.159Z,5.30
2022-09-17T05:38:07.618Z,4.00
2022-09-17T05:40:37.640Z,4.40
2022-09-17T05:43:07.735Z,4.20
2022-09-17T05:45:37.630Z,5.15
2022-09-17T05:48:11.170Z,4.65
2022-09-17T05:50:39.034Z,4.60
2022-09-17T05:53:08.244Z,4.63
2022-09-17T05:55:37.541Z,4.88
2022-09-17T05:58:11.416Z,5.38
2022-09-17T06:00:39.476Z,6.47
2022-09-17T06:03:07.333Z,4.57
2022-09-17T06:05:35.164Z,4.18
2022-09-17T06:08:03.676Z,5.03
2022-09-17T06:10:31.555Z,4.68
2022-09-17T06:13:01.015Z,3.80
2022-09-17T06:15:29.318Z,4.07
2022-09-17T06:17:57.500Z,4.60
2022-09-17T06:20:25.405Z,5.03
2022-09-17T06:22:57.744Z,5.10
2022-09-17T06:25:26.424Z,4.43
2022-09-17T06:27:54.186Z,5.22
2022-09-17T06:30:23.478Z,4.50
2022-09-17T06:32:51.772Z,4.90
2022-09-17T06:35:20.546Z,5.35
2022-09-17T06:37:48.732Z,4.45
2022-09-17T06:40:17.377Z,4.53
2022-09-17T06:42:45.287Z,4.45
2022-09-17T06:45:16.557Z,4.10
2022-09-17T06:47:46.259Z,4.55
2022-09-17T06:50:14.418Z,4.15
2022-09-17T06:52:49.137Z,3.45
2022-09-17T06:55:17.407Z,4.22
2022-09-17T06:57:45.429Z,4.20
2022-09-17T07:00:15.070Z,3.63
2022-09-17T07:02:43.029Z,3.90
2022-09-17T07:05:12.445Z,3.28
2022-09-17T07:07:40.893Z,4.07
2022-09-17T07:10:09.600Z,3.40
2022-09-17T07:12:41.439Z,3.58
2022-09-17T07:15:11.325Z,4.05
2022-09-17T07:17:39.712Z,4.80
2022-09-17T07:20:08.575Z,4.78
2022-09-17T07:22:38.354Z,3.35
2022-09-17T07:25:07.650Z,2.95
2022-09-17T07:27:35.528Z,2.15
2022-09-17T07:30:03.813Z,2.33
2022-09-17T07:32:32.411Z,2.20
2022-09-17T07:35:00.257Z,4.45
2022-09-17T07:37:30.049Z,1.88
2022-09-17T07:39:59.231Z,3.03
2022-09-17T07:42:27.614Z,2.53
2022-09-17T07:44:59.822Z,5.18
2022-09-17T07:47:29.780Z,8.07
2022-09-17T07:49:57.782Z,2.40
2022-09-17T07:52:25.697Z,2.05
2022-09-17T07:54:53.601Z,1.60
2022-09-17T07:57:22.965Z,1.90
2022-09-17T07:59:50.749Z,1.90
2022-09-17T08:02:23.207Z,2.30
2022-09-17T08:04:52.101Z,2.20
2022-09-17T08:07:19.863Z,2.50
2022-09-17T08:09:47.678Z,2.33
2022-09-17T08:12:15.436Z,2.38
2022-09-17T08:14:44.643Z,1.85
2022-09-17T08:17:13.059Z,2.15
2022-09-17T08:19:40.888Z,1.85
2022-09-17T08:22:08.686Z,3.00
2022-09-17T08:24:36.526Z,1.70
2022-09-17T08:27:04.699Z,1.80
2022-09-17T08:29:35.285Z,2.10
2022-09-17T08:32:06.982Z,1.83
2022-09-17T08:34:36.733Z,1.75
2022-09-17T08:37:04.567Z,1.10
2022-09-17T08:39:32.578Z,1.95
2022-09-17T08:42:09.411Z,1.50
2022-09-17T08:44:42.290Z,1.80
2022-09-17T08:47:18.563Z,1.40
2022-09-17T08:49:52.065Z,1.40
2022-09-17T08:52:50.899Z,1.10
2022-09-17T08:55:34.903Z,0.93
2022-09-17T08:58:20.404Z,0.88
2022-09-17T09:00:55.482Z,0.95
2022-09-17T09:03:37.232Z,1.60
2022-09-17T09:06:10.543Z,1.45
2022-09-17T09:08:44.023Z,2.08
2022-09-17T09:11:17.156Z,2.90
2022-09-17T09:13:48.405Z,2.00
2022-09-17T09:16:18.905Z,2.22
2022-09-17T09:18:52.392Z,2.58
2022-09-17T09:21:28.162Z,3.53
2022-09-17T09:23:58.710Z,3.25
2022-09-17T09:26:41.997Z,3.10
2022-09-17T09:29:20.227Z,4.03
2022-09-17T09:32:17.840Z,4.43
2022-09-17T09:34:49.332Z,4.40
2022-09-17T09:37:21.470Z,4.22
2022-09-17T09:39:52.209Z,4.93
2022-09-17T09:42:29.739Z,4.32
2022-09-17T09:45:04.905Z,4.65
2022-09-17T09:47:47.629Z,5.22
2022-09-17T09:51:01.977Z,5.97
2022-09-17T09:53:32.914Z,3.97
2022-09-17T09:56:16.724Z,4.15
2022-09-17T09:58:44.557Z,5.95
2022-09-17T10:01:15.846Z,4.30
2022-09-17T10:03:46.162Z,5.03
2022-09-17T10:06:17.198Z,5.45
2022-09-17T10:09:13.751Z,5.47
2022-09-17T10:11:42.457Z,4.72
2022-09-17T10:14:24.186Z,5.63
2022-09-17T10:17:11.772Z,5.80
2022-09-17T10:19:39.862Z,5.75
2022-09-17T10:22:27.253Z,6.40
2022-09-17T10:24:57.839Z,5.53
2022-09-17T10:27:27.551Z,5.00
2022-09-17T10:30:04.503Z,4.72
2022-09-17T10:32:32.535Z,5.43
2022-09-17T10:35:04.519Z,4.30
2022-09-17T10:37:37.312Z,4.40
2022-09-17T10:40:27.509Z,3.83
2022-09-17T10:43:20.346Z,4.10
2022-09-17T10:45:58.828Z,4.15
2022-09-17T10:48:29.814Z,3.55
2022-09-17T10:50:58.509Z,3.88
2022-09-17T10:53:28.446Z,4.53
2022-09-17T10:56:06.459Z,2.97
2022-09-17T10:58:46.631Z,2.97
2022-09-17T11:01:29.803Z,2.78
2022-09-17T11:04:26.821Z,2.72
2022-09-17T11:07:22.413Z,2.90
2022-09-17T11:10:00.856Z,3.28
2022-09-17T11:12:38.130Z,2.10
2022-09-17T11:15:22.050Z,3.30
2022-09-17T11:18:19.600Z,2.58
2022-09-17T11:20:59.901Z,2.03
2022-09-17T11:23:52.689Z,2.33
2022-09-17T11:26:33.617Z,2.75
2022-09-17T11:29:17.582Z,2.83
2022-09-17T11:31:55.644Z,2.78
2022-09-17T11:34:29.547Z,1.90
2022-09-17T11:37:06.124Z,2.00
2022-09-17T11:39:39.921Z,1.25
2022-09-17T11:42:16.019Z,1.63
2022-09-17T11:44:51.642Z,1.30
2022-09-17T11:47:24.991Z,1.08
2022-09-17T11:49:58.952Z,1.08
2022-09-17T11:52:31.071Z,1.42
2022-09-17T11:55:03.900Z,1.15
2022-09-17T11:57:37.205Z,1.33
2022-09-17T12:00:08.611Z,1.23
2022-09-17T12:02:53.065Z,1.00
2022-09-17T12:05:25.122Z,1.38
2022-09-17T12:07:57.782Z,1.40
2022-09-17T12:10:38.141Z,1.88
2022-09-17T12:13:18.206Z,1.25
2022-09-17T12:15:53.462Z,1.00
2022-09-17T12:18:38.025Z,1.55
2022-09-17T12:21:10.474Z,1.25
2022-09-17T12:23:43.917Z,1.30
2022-09-17T12:26:22.539Z,0.90
2022-09-17T12:29:01.822Z,1.23
2022-09-17T12:31:36.366Z,1.20
2022-09-17T12:34:21.432Z,1.23
2022-09-17T12:36:57.372Z,2.00
2022-09-17T12:39:53.948Z,1.50
2022-09-17T12:42:35.518Z,1.40
2022-09-17T12:45:21.247Z,1.15
2022-09-17T12:48:24.513Z,1.30
2022-09-17T12:51:03.064Z,1.05
2022-09-17T12:53:36.913Z,1.10
2022-09-17T12:56:17.207Z,2.67
2022-09-17T12:59:05.349Z,1.30
2022-09-17T13:01:41.197Z,1.77
2022-09-17T13:04:43.629Z,1.48
2022-09-17T13:07:51.323Z,2.13
2022-09-17T13:10:40.866Z,1.55
2022-09-17T13:13:26.388Z,2.67
2022-09-17T13:16:00.619Z,1.58
2022-09-17T13:18:36.061Z,1.27
2022-09-17T13:21:14.204Z,1.60
2022-09-17T13:23:44.842Z,1.10
2022-09-17T13:26:17.010Z,1.73
2022-09-17T13:28:47.737Z,1.40
2022-09-17T13:31:21.949Z,1.40
2022-09-17T13:33:54.458Z,1.55
2022-09-17T13:36:41.411Z,1.95
2022-09-17T13:39:30.486Z,2.50
2022-09-17T13:42:04.833Z,2.00
2022-09-17T13:44:36.098Z,2.00
2022-09-17T13:47:18.177Z,2.58
2022-09-17T13:50:03.450Z,2.35
2022-09-17T13:52:44.088Z,1.90
2022-09-17T13:55:32.874Z,2.70
2022-09-17T13:58:01.584Z,2.30
2022-09-17T14:00:49.316Z,2.95
2022-09-17T14:03:51.169Z,2.47
2022-09-17T14:06:53.790Z,3.10
2022-09-17T14:09:51.342Z,1.83
2022-09-17T14:12:52.381Z,2.50
2022-09-17T14:15:36.397Z,1.60
2022-09-17T14:18:25.931Z,2.22
2022-09-17T14:20:55.418Z,1.55
2022-09-17T14:23:25.487Z,2.28
2022-09-17T14:25:56.860Z,1.90
2022-09-17T14:28:33.264Z,2.15
2022-09-17T14:33:56.733Z,2.05
2022-09-17T14:36:25.257Z,2.35
2022-09-17T14:38:57.284Z,2.30
2022-09-17T14:41:27.123Z,1.80
2022-09-17T14:43:58.694Z,1.92
2022-09-17T14:46:32.810Z,2.58
2022-09-17T14:49:15.897Z,1.75
2022-09-17T14:51:43.990Z,2.15
2022-09-17T14:54:19.314Z,2.95
2022-09-17T14:56:50.852Z,1.83
2022-09-17T14:59:23.959Z,1.92
2022-09-17T15:01:51.905Z,1.90
2022-09-17T15:04:22.736Z,2.60
2022-09-17T15:06:51.633Z,2.88
2022-09-17T15:09:26.228Z,2.58
2022-09-17T15:11:56.552Z,3.08
2022-09-17T15:14:31.821Z,2.00
2022-09-17T15:17:01.988Z,1.55
2022-09-17T15:19:35.846Z,1.90
2022-09-17T15:22:09.147Z,2.60
2022-09-17T15:24:43.872Z,2.40
2022-09-17T15:27:18.525Z,2.85
2022-09-17T15:29:51.319Z,2.15
2022-09-17T15:32:19.614Z,2.80
2022-09-17T15:35:18.306Z,1.83
2022-09-17T15:38:11.528Z,1.92
2022-09-17T15:40:39.312Z,2.38
2022-09-17T15:43:18.078Z,2.70
2022-09-17T15:45:46.295Z,3.22
2022-09-17T15:48:36.026Z,2.60
2022-09-17T15:51:05.470Z,2.00
2022-09-17T15:53:35.173Z,2.75
2022-09-17T15:56:07.432Z,2.40
2022-09-17T15:58:50.414Z,2.85
2022-09-17T16:01:53.997Z,1.80
2022-09-17T16:04:30.261Z,2.03
2022-09-17T16:07:17.792Z,2.83
2022-09-17T16:09:49.078Z,2.70
2022-09-17T16:12:22.310Z,2.45
2022-09-17T16:14:52.978Z,2.25
2022-09-17T16:17:42.999Z,2.97
2022-09-17T16:20:16.860Z,2.10
2022-09-17T16:22:45.502Z,1.48
2022-09-17T16:25:13.358Z,1.50
2022-09-17T16:27:50.287Z,1.70
2022-09-17T16:30:20.328Z,1.60
2022-09-17T16:32:48.526Z,2.30
2022-09-17T16:35:18.092Z,2.45
2022-09-17T16:37:48.829Z,3.00
2022-09-17T16:40:17.154Z,2.28
2022-09-17T16:42:46.928Z,3.40
2022-09-17T16:45:15.499Z,3.15
2022-09-17T16:47:44.891Z,2.72
2022-09-17T16:50:15.561Z,2.55
2022-09-17T16:52:43.866Z,2.50
2022-09-17T16:55:13.329Z,2.13
2022-09-17T16:57:41.221Z,1.88
2022-09-17T17:00:14.239Z,1.95
2022-09-17T17:02:42.101Z,1.95
2022-09-17T17:05:10.637Z,1.70
2022-09-17T17:07:38.800Z,1.92
2022-09-17T17:10:09.091Z,2.00
2022-09-17T17:12:37.736Z,2.17
2022-09-17T17:15:07.020Z,2.28
2022-09-17T17:17:36.847Z,2.20
2022-09-17T17:20:07.991Z,2.25
2022-09-17T17:22:37.005Z,1.75
2022-09-17T17:25:05.609Z,1.73
2022-09-17T17:27:33.446Z,2.03
2022-09-17T17:30:02.239Z,1.90
2022-09-17T17:32:30.080Z,2.17
2022-09-17T17:34:59.298Z,2.03
2022-09-17T17:37:27.010Z,2.47
2022-09-17T17:39:54.835Z,2.40
2022-09-17T17:42:22.671Z,2.78
2022-09-17T17:44:50.423Z,2.72
2022-09-17T17:47:18.232Z,3.20
2022-09-17T17:49:46.082Z,2.95
2022-09-17T17:52:15.207Z,2.20
2022-09-17T17:54:42.987Z,2.65
2022-09-17T17:57:11.427Z,3.63
2022-09-17T17:59:39.316Z,1.88
2022-09-17T18:02:07.633Z,2.53
2022-09-17T18:04:35.581Z,3.60
2022-09-17T18:07:03.359Z,3.13
2022-09-17T18:09:32.480Z,3.67
2022-09-17T18:12:00.449Z,4.60
2022-09-17T18:14:28.248Z,3.20
2022-09-17T18:16:56.123Z,5.85
2022-09-17T18:19:23.961Z,5.05
2022-09-17T18:21:51.878Z,3.28
2022-09-17T18:24:19.727Z,3.50
2022-09-17T18:26:48.856Z,3.47
2022-09-17T18:29:16.671Z,3.38
2022-09-17T18:31:46.391Z,3.30
2022-09-17T18:34:16.857Z,2.00
2022-09-17T18:36:50.791Z,1.95
2022-09-17T18:42:09.831Z,3.00
2022-09-17T18:44:37.692Z,2.08
2022-09-17T18:47:05.606Z,2.20
2022-09-17T18:49:33.619Z,2.00
2022-09-17T18:52:01.460Z,2.33
2022-09-17T18:54:29.275Z,4.15
2022-09-17T18:56:57.054Z,2.85
2022-09-17T18:59:26.245Z,2.35
2022-09-17T19:01:54.090Z,2.55
2022-09-17T19:04:22.674Z,2.50
2022-09-17T19:06:50.467Z,2.20
2022-09-17T19:09:18.449Z,2.30
2022-09-17T19:11:46.266Z,1.90
2022-09-17T19:14:14.120Z,2.20
2022-09-17T19:16:43.268Z,2.45
2022-09-17T19:19:11.524Z,1.23
2022-09-17T19:21:39.331Z,2.50
2022-09-17T19:24:07.507Z,1.65
2022-09-17T19:26:35.310Z,1.85
2022-09-17T19:29:03.131Z,1.50
2022-09-17T19:31:31.164Z,1.63
2022-09-17T19:34:00.461Z,1.55
2022-09-17T19:36:29.014Z,1.45
2022-09-17T19:38:58.577Z,2.03
2022-09-17T19:41:26.777Z,2.03
2022-09-17T19:43:56.895Z,1.50
2022-09-17T19:46:26.829Z,2.05
2022-09-17T19:48:56.439Z,1.38
2022-09-17T19:51:28.333Z,0.98
2022-09-17T19:53:56.974Z,1.25
2022-09-17T19:56:27.097Z,1.10
2022-09-17T19:58:55.233Z,0.90
2022-09-17T20:01:23.278Z,1.10
2022-09-17T20:03:53.206Z,1.23
2022-09-17T20:06:23.320Z,1.00
2022-09-17T20:08:54.665Z,1.13
2022-09-17T20:11:24.661Z,2.00
2022-09-17T20:13:57.643Z,0.80
2022-09-17T20:16:25.507Z,1.10
2022-09-17T20:18:53.569Z,0.70
2022-09-17T20:21:23.643Z,1.00
2022-09-17T20:23:53.085Z,1.63
2022-09-17T20:26:21.848Z,1.40
2022-09-17T20:28:51.078Z,0.98
2022-09-17T20:31:21.871Z,2.70
2022-09-17T20:33:52.860Z,0.88
2022-09-17T20:36:22.095Z,1.10
2022-09-17T20:41:40.654Z,1.20
2022-09-17T20:44:08.778Z,0.95
2022-09-17T20:46:36.609Z,0.90
2022-09-17T20:49:05.344Z,1.33
2022-09-17T20:51:34.058Z,1.17
2022-09-17T20:54:02.888Z,0.65
2022-09-17T20:56:33.324Z,0.80
2022-09-17T20:59:08.747Z,1.38
2022-09-17T21:01:38.087Z,1.25
2022-09-17T21:04:07.803Z,1.00
2022-09-17T21:06:37.104Z,0.75
2022-09-17T21:09:05.999Z,1.92
2022-09-17T21:11:34.676Z,0.75
2022-09-17T21:14:03.971Z,1.00
2022-09-17T21:16:32.175Z,0.82
2022-09-17T21:19:01.794Z,0.77
2022-09-17T21:21:30.354Z,0.82
2022-09-17T21:24:01.084Z,1.85
2022-09-17T21:26:29.581Z,1.10
2022-09-17T21:28:58.401Z,0.70
2022-09-17T21:31:32.346Z,0.90
2022-09-17T21:34:03.322Z,0.73
2022-09-17T21:36:33.109Z,0.98
2022-09-17T21:39:02.265Z,1.00
2022-09-17T21:41:30.620Z,1.02
2022-09-17T21:43:58.687Z,0.70
2022-09-17T21:46:30.302Z,0.77
2022-09-17T21:49:00.078Z,0.75
2022-09-17T21:51:30.560Z,0.68
2022-09-17T21:54:00.901Z,0.70
2022-09-17T21:56:29.560Z,1.00
2022-09-17T21:58:58.863Z,1.05
2022-09-17T22:01:32.120Z,1.00
2022-09-17T22:04:02.058Z,0.70
2022-09-17T22:06:32.099Z,0.68
2022-09-17T22:09:02.087Z,1.02
2022-09-17T22:11:33.739Z,0.88
2022-09-17T22:14:05.202Z,0.88
2022-09-17T22:16:36.066Z,1.25
2022-09-17T22:19:05.688Z,0.60
2022-09-17T22:21:36.091Z,0.60
2022-09-17T22:24:05.847Z,0.85
2022-09-17T22:26:36.243Z,0.60
2022-09-17T22:29:06.760Z,0.70
2022-09-17T22:31:36.762Z,0.70
2022-09-17T22:34:08.677Z,0.65
2022-09-17T22:36:36.946Z,0.82
2022-09-17T22:39:06.662Z,0.93
2022-09-17T22:41:36.697Z,0.75
2022-09-17T22:44:06.587Z,0.70
2022-09-17T22:46:39.374Z,0.70
2022-09-17T22:49:07.946Z,0.50
2022-09-17T22:51:35.848Z,0.80
2022-09-17T22:54:04.052Z,0.50
2022-09-17T22:56:31.884Z,0.80
2022-09-17T22:59:00.162Z,0.70
2022-09-17T23:01:29.902Z,1.05
2022-09-17T23:04:00.283Z,0.80
2022-09-17T23:06:30.411Z,0.80
2022-09-17T23:08:59.296Z,0.52
2022-09-17T23:11:28.876Z,0.70
2022-09-17T23:13:58.554Z,0.73
2022-09-17T23:16:26.740Z,0.50
2022-09-17T23:18:55.086Z,0.63
2022-09-17T23:21:24.256Z,0.73
2022-09-17T23:23:52.441Z,0.60
2022-09-17T23:26:22.906Z,0.73
2022-09-17T23:28:51.708Z,0.80
2022-09-17T23:31:23.742Z,1.02
2022-09-17T23:33:52.246Z,0.73
2022-09-17T23:36:22.403Z,0.70
2022-09-17T23:38:52.764Z,0.95
2022-09-17T23:41:22.953Z,0.95
2022-09-17T23:43:52.568Z,1.40
2022-09-17T23:46:22.214Z,1.20
2022-09-17T23:48:51.295Z,0.65
2022-09-17T23:51:19.187Z,0.68
2022-09-17T23:53:48.049Z,0.75
2022-09-17T23:56:19.112Z,0.60
2022-09-17T23:58:46.925Z,1.25
